createdAt,value
2018-10-06T00:01:01.441Z,3.97
2018-10-06T00:03:29.213Z,3.90
2018-10-06T00:05:57.749Z,4.47
2018-10-06T00:08:25.548Z,4.20
2018-10-06T00:10:54.138Z,4.10
2018-10-06T00:13:21.929Z,4.17
2018-10-06T00:15:49.701Z,3.50
2018-10-06T00:18:17.481Z,4.07
2018-10-06T00:20:45.315Z,4.40
2018-10-06T00:23:13.121Z,3.83
2018-10-06T00:25:41.109Z,4.10
2018-10-06T00:28:08.995Z,3.90
2018-10-06T00:30:36.781Z,4.30
2018-10-06T00:33:04.548Z,4.27
2018-10-06T00:35:32.313Z,4.20
2018-10-06T00:38:00.114Z,3.90
2018-10-06T00:40:27.881Z,4.30
2018-10-06T00:42:55.692Z,4.37
2018-10-06T00:45:23.453Z,4.20
2018-10-06T00:47:51.213Z,4.47
2018-10-06T00:50:19.015Z,3.63
2018-10-06T00:52:46.793Z,3.87
2018-10-06T00:55:14.619Z,3.83
2018-10-06T00:57:42.436Z,4.10
2018-10-06T01:00:10.274Z,3.77
2018-10-06T01:02:38.098Z,3.80
2018-10-06T01:05:05.939Z,4.23
2018-10-06T01:07:33.720Z,4.20
2018-10-06T01:10:01.561Z,3.70
2018-10-06T01:12:29.336Z,3.97
2018-10-06T01:14:57.213Z,3.93
2018-10-06T01:17:25.024Z,3.90
2018-10-06T01:19:52.778Z,4.37
2018-10-06T01:22:20.556Z,4.00
2018-10-06T01:24:48.373Z,4.17
2018-10-06T01:27:16.197Z,3.77
2018-10-06T01:29:44.201Z,4.07
2018-10-06T01:32:12.099Z,3.73
2018-10-06T01:34:39.997Z,4.10
2018-10-06T01:37:07.792Z,4.00
2018-10-06T01:39:35.597Z,4.13
2018-10-06T01:42:03.358Z,3.70
2018-10-06T01:44:31.111Z,3.73
2018-10-06T01:46:58.940Z,3.90
2018-10-06T01:49:26.703Z,3.90
2018-10-06T01:51:54.493Z,4.00
2018-10-06T01:54:22.309Z,3.67
2018-10-06T01:56:50.968Z,3.93
2018-10-06T01:59:18.755Z,4.07
2018-10-06T02:01:46.598Z,3.73
2018-10-06T02:04:14.363Z,3.67
2018-10-06T02:06:42.198Z,3.63
2018-10-06T02:09:10.120Z,3.93
2018-10-06T02:11:37.924Z,3.73
2018-10-06T02:14:05.709Z,3.73
2018-10-06T02:16:33.505Z,3.23
2018-10-06T02:19:01.268Z,3.80
2018-10-06T02:21:29.018Z,3.80
2018-10-06T02:23:56.835Z,3.80
2018-10-06T02:26:24.628Z,4.07
2018-10-06T02:28:52.424Z,3.73
2018-10-06T02:31:20.228Z,3.60
2018-10-06T02:33:48.301Z,3.60
2018-10-06T02:36:16.130Z,3.43
2018-10-06T02:38:43.995Z,3.73
2018-10-06T02:41:11.918Z,3.20
2018-10-06T02:43:39.850Z,3.87
2018-10-06T02:46:07.676Z,3.17
2018-10-06T02:48:35.493Z,3.27
2018-10-06T02:51:03.281Z,3.57
2018-10-06T02:53:31.037Z,3.47
2018-10-06T02:55:59.097Z,3.50
2018-10-06T02:58:27.277Z,3.40
2018-10-06T03:00:55.041Z,3.37
2018-10-06T03:03:23.669Z,3.70
2018-10-06T03:05:51.497Z,3.30
2018-10-06T03:08:19.257Z,3.53
2018-10-06T03:10:47.144Z,3.27
2018-10-06T03:13:14.972Z,2.97
2018-10-06T03:15:42.798Z,3.37
2018-10-06T03:18:10.674Z,3.30
2018-10-06T03:20:38.450Z,3.33
2018-10-06T03:23:06.245Z,3.30
2018-10-06T03:25:34.009Z,3.23
2018-10-06T03:28:01.819Z,3.60
2018-10-06T03:30:29.590Z,3.57
2018-10-06T03:32:57.334Z,3.30
2018-10-06T03:35:25.161Z,3.50
2018-10-06T03:37:53.155Z,3.50
2018-10-06T03:40:21.023Z,4.00
2018-10-06T03:42:48.805Z,3.37
2018-10-06T03:45:16.584Z,3.70
2018-10-06T03:47:44.471Z,3.43
2018-10-06T03:50:12.285Z,3.90
2018-10-06T03:52:40.169Z,3.70
2018-10-06T03:55:07.991Z,3.50
2018-10-06T03:57:35.756Z,3.80
2018-10-06T04:00:03.888Z,3.47
2018-10-06T04:02:31.745Z,4.10
2018-10-06T04:04:59.545Z,3.17
2018-10-06T04:07:27.463Z,3.83
2018-10-06T04:09:55.320Z,3.70
2018-10-06T04:12:23.209Z,3.27
2018-10-06T04:14:50.948Z,3.43
2018-10-06T04:17:18.720Z,3.10
2018-10-06T04:19:46.541Z,2.83
2018-10-06T04:22:14.392Z,3.10
2018-10-06T04:24:42.257Z,3.27
2018-10-06T04:27:10.037Z,3.33
2018-10-06T04:29:39.065Z,3.00
2018-10-06T04:32:06.949Z,3.20
2018-10-06T04:34:34.729Z,3.20
2018-10-06T04:37:02.512Z,3.50
2018-10-06T04:39:30.308Z,3.13
2018-10-06T04:41:58.089Z,3.20
2018-10-06T04:44:25.881Z,3.53
2018-10-06T04:46:53.809Z,3.50
2018-10-06T04:49:21.637Z,3.40
2018-10-06T04:51:50.226Z,3.47
2018-10-06T04:54:18.071Z,3.50
2018-10-06T04:56:45.961Z,3.10
2018-10-06T04:59:13.783Z,3.40
2018-10-06T05:01:41.590Z,3.27
2018-10-06T05:04:09.433Z,3.03
2018-10-06T05:06:37.233Z,3.07
2018-10-06T05:09:06.499Z,3.10
2018-10-06T05:11:34.309Z,2.90
2018-10-06T05:14:02.114Z,3.10
2018-10-06T05:16:29.940Z,3.47
2018-10-06T05:18:57.733Z,3.20
2018-10-06T05:21:25.521Z,3.33
2018-10-06T05:23:53.293Z,3.07
2018-10-06T05:26:21.104Z,3.20
2018-10-06T05:28:48.953Z,3.07
2018-10-06T05:31:16.789Z,3.17
2018-10-06T05:33:44.643Z,3.33
2018-10-06T05:36:12.579Z,2.93
2018-10-06T05:38:40.350Z,3.37
2018-10-06T05:41:08.165Z,2.70
2018-10-06T05:43:35.964Z,3.10
2018-10-06T05:46:03.861Z,3.43
2018-10-06T05:48:31.700Z,3.50
2018-10-06T05:50:59.486Z,3.73
2018-10-06T05:53:27.230Z,3.53
2018-10-06T05:55:55.005Z,3.93
2018-10-06T05:58:22.749Z,4.13
2018-10-06T06:00:50.562Z,4.00
2018-10-06T06:03:18.353Z,3.50
2018-10-06T06:05:46.137Z,3.30
2018-10-06T06:08:14.101Z,3.77
2018-10-06T06:10:41.993Z,3.50
2018-10-06T06:13:09.761Z,3.33
2018-10-06T06:15:39.390Z,3.00
2018-10-06T06:18:07.204Z,2.53
2018-10-06T06:20:34.981Z,3.40
2018-10-06T06:23:02.773Z,3.23
2018-10-06T06:25:30.537Z,3.07
2018-10-06T06:27:58.292Z,3.13
2018-10-06T06:30:26.088Z,2.80
2018-10-06T06:32:53.827Z,3.20
2018-10-06T06:35:21.636Z,3.17
2018-10-06T06:37:49.412Z,3.23
2018-10-06T06:40:17.360Z,3.10
2018-10-06T06:42:45.341Z,3.00
2018-10-06T06:45:13.336Z,3.10
2018-10-06T06:47:41.202Z,3.13
2018-10-06T06:50:09.157Z,3.63
2018-10-06T06:52:36.913Z,3.60
2018-10-06T06:55:05.077Z,3.80
2018-10-06T06:57:33.273Z,3.30
2018-10-06T07:00:01.045Z,3.63
2018-10-06T07:02:28.962Z,4.10
2018-10-06T07:04:56.750Z,3.70
2018-10-06T07:07:24.537Z,3.67
2018-10-06T07:09:52.313Z,3.70
2018-10-06T07:12:20.520Z,3.50
2018-10-06T07:14:48.369Z,3.67
2018-10-06T07:17:16.145Z,3.50
2018-10-06T07:19:44.017Z,3.40
2018-10-06T07:22:11.785Z,3.33
2018-10-06T07:24:39.621Z,3.10
2018-10-06T07:27:07.418Z,3.30
2018-10-06T07:29:35.209Z,3.33
2018-10-06T07:32:03.002Z,3.20
2018-10-06T07:34:33.033Z,3.10
2018-10-06T07:37:00.876Z,3.47
2018-10-06T07:39:28.640Z,4.87
2018-10-06T07:41:56.476Z,4.60
2018-10-06T07:44:24.248Z,6.30
2018-10-06T07:46:52.169Z,6.07
2018-10-06T07:49:20.286Z,5.40
2018-10-06T07:51:48.128Z,5.63
2018-10-06T07:54:21.950Z,5.70
2018-10-06T07:56:49.750Z,5.60
2018-10-06T07:59:17.580Z,5.03
2018-10-06T08:01:45.493Z,5.07
2018-10-06T08:04:13.366Z,4.30
2018-10-06T08:06:41.137Z,4.17
2018-10-06T08:09:09.272Z,6.17
2018-10-06T08:11:37.184Z,4.60
2018-10-06T08:14:05.280Z,4.10
2018-10-06T08:16:33.391Z,4.57
2018-10-06T08:19:01.163Z,5.50
2018-10-06T08:21:28.942Z,5.87
2018-10-06T08:23:56.752Z,6.93
2018-10-06T08:26:24.541Z,7.50
2018-10-06T08:28:52.326Z,7.20
2018-10-06T08:31:20.109Z,7.17
2018-10-06T08:33:48.950Z,6.70
2018-10-06T08:36:16.761Z,7.03
2018-10-06T08:38:44.745Z,7.27
2018-10-06T08:41:13.321Z,6.90
2018-10-06T08:43:41.109Z,7.77
2018-10-06T08:46:08.985Z,7.37
2018-10-06T08:48:36.774Z,7.57
2018-10-06T08:51:04.553Z,7.77
2018-10-06T08:53:32.320Z,7.07
2018-10-06T08:56:00.515Z,6.47
2018-10-06T08:58:28.390Z,7.00
2018-10-06T09:00:56.246Z,7.27
2018-10-06T09:03:24.049Z,6.57
2018-10-06T09:05:51.825Z,6.40
2018-10-06T09:08:19.689Z,6.90
2018-10-06T09:10:47.531Z,9.07
2018-10-06T09:13:15.397Z,8.57
2018-10-06T09:15:43.341Z,7.37
2018-10-06T09:18:11.166Z,8.17
2018-10-06T09:20:41.065Z,7.20
2018-10-06T09:23:08.855Z,7.03
2018-10-06T09:25:36.822Z,7.07
2018-10-06T09:28:04.707Z,7.63
2018-10-06T09:30:32.477Z,6.97
2018-10-06T09:33:00.309Z,6.97
2018-10-06T09:35:28.090Z,7.80
2018-10-06T09:37:55.988Z,7.13
2018-10-06T09:40:23.814Z,7.27
2018-10-06T09:42:51.612Z,7.37
2018-10-06T09:45:19.635Z,8.00
2018-10-06T09:47:47.465Z,7.37
2018-10-06T09:50:15.381Z,7.57
2018-10-06T09:52:43.213Z,6.80
2018-10-06T09:55:11.009Z,6.63
2018-10-06T09:57:38.846Z,6.70
2018-10-06T10:00:07.151Z,6.27
2018-10-06T10:02:40.437Z,6.40
2018-10-06T10:05:13.848Z,5.97
2018-10-06T10:07:41.702Z,5.80
2018-10-06T10:10:09.737Z,6.10
2018-10-06T10:12:37.658Z,6.12
2018-10-06T10:15:05.477Z,5.90
2018-10-06T10:17:33.400Z,5.72
2018-10-06T10:20:01.081Z,7.30
2018-10-06T10:22:29.008Z,6.37
2018-10-06T10:24:56.685Z,6.05
2018-10-06T10:27:24.497Z,6.12
2018-10-06T10:29:52.297Z,5.78
2018-10-06T10:32:20.125Z,5.33
2018-10-06T10:34:47.961Z,5.05
2018-10-06T10:37:16.183Z,5.67
2018-10-06T10:39:44.048Z,5.65
2018-10-06T10:42:11.885Z,5.33
2018-10-06T10:44:39.786Z,6.12
2018-10-06T10:47:07.897Z,5.78
2018-10-06T10:49:35.757Z,6.03
2018-10-06T10:52:03.525Z,5.83
2018-10-06T10:54:31.323Z,6.20
2018-10-06T10:56:59.081Z,5.60
2018-10-06T10:59:26.946Z,5.58
2018-10-06T11:01:54.709Z,5.90
2018-10-06T11:04:22.485Z,5.90
2018-10-06T11:06:50.269Z,5.28
2018-10-06T11:09:18.129Z,6.30
2018-10-06T11:11:46.076Z,5.58
2018-10-06T11:14:13.992Z,5.83
2018-10-06T11:16:41.825Z,5.97
2018-10-06T11:19:09.755Z,6.35
2018-10-06T11:21:37.592Z,5.97
2018-10-06T11:24:06.105Z,6.50
2018-10-06T11:26:33.868Z,6.83
2018-10-06T11:29:01.645Z,6.67
2018-10-06T11:31:29.411Z,6.40
2018-10-06T11:33:58.138Z,7.35
2018-10-06T11:36:25.991Z,6.12
2018-10-06T11:38:53.838Z,6.33
2018-10-06T11:41:21.772Z,5.90
2018-10-06T11:43:49.617Z,6.28
2018-10-06T11:46:17.559Z,5.72
2018-10-06T11:48:45.485Z,5.75
2018-10-06T11:51:13.257Z,6.15
2018-10-06T11:53:41.036Z,5.62
2018-10-06T11:56:08.825Z,5.72
2018-10-06T11:58:36.596Z,5.60
2018-10-06T12:01:04.494Z,5.70
2018-10-06T12:03:32.312Z,5.70
2018-10-06T12:06:00.121Z,5.83
2018-10-06T12:08:27.914Z,5.37
2018-10-06T12:10:55.653Z,5.53
2018-10-06T12:13:23.437Z,5.47
2018-10-06T12:15:51.581Z,5.72
2018-10-06T12:18:19.419Z,5.85
2018-10-06T12:20:47.274Z,5.67
2018-10-06T12:23:15.111Z,6.05
2018-10-06T12:25:42.908Z,5.80
2018-10-06T12:28:10.680Z,6.08
2018-10-06T12:30:38.602Z,5.75
2018-10-06T12:33:06.640Z,6.10
2018-10-06T12:35:34.515Z,6.15
2018-10-06T12:38:02.253Z,6.00
2018-10-06T12:40:30.013Z,5.83
2018-10-06T12:42:57.801Z,6.12
2018-10-06T12:45:25.562Z,6.15
2018-10-06T12:47:53.317Z,5.92
2018-10-06T12:50:21.098Z,5.60
2018-10-06T12:52:48.922Z,6.40
2018-10-06T12:55:16.690Z,6.08
2018-10-06T12:57:44.656Z,5.70
2018-10-06T13:00:12.484Z,5.58
2018-10-06T13:02:40.212Z,5.65
2018-10-06T13:05:08.004Z,5.58
2018-10-06T13:07:35.917Z,5.33
2018-10-06T13:10:03.741Z,5.50
2018-10-06T13:12:31.658Z,5.78
2018-10-06T13:14:59.417Z,5.28
2018-10-06T13:17:27.191Z,5.20
2018-10-06T13:19:55.001Z,5.20
2018-10-06T13:22:22.832Z,5.37
2018-10-06T13:24:50.655Z,5.47
2018-10-06T13:27:18.444Z,5.17
2018-10-06T13:29:46.324Z,5.30
2018-10-06T13:32:14.236Z,5.25
2018-10-06T13:34:42.102Z,5.28
2018-10-06T13:37:09.965Z,5.17
2018-10-06T13:39:37.753Z,5.10
2018-10-06T13:42:05.562Z,5.42
2018-10-06T13:44:33.372Z,5.28
2018-10-06T13:47:01.157Z,4.87
2018-10-06T13:49:28.933Z,5.17
2018-10-06T13:51:56.720Z,4.75
2018-10-06T13:54:24.552Z,4.42
2018-10-06T13:56:52.541Z,5.28
2018-10-06T13:59:20.340Z,5.25
2018-10-06T14:01:48.161Z,4.08
2018-10-06T14:04:16.097Z,4.47
2018-10-06T14:06:43.957Z,4.15
2018-10-06T14:09:11.761Z,4.30
2018-10-06T14:11:39.577Z,4.75
2018-10-06T14:14:07.382Z,4.65
2018-10-06T14:16:35.148Z,4.45
2018-10-06T14:19:02.933Z,4.50
2018-10-06T14:21:30.726Z,4.20
2018-10-06T14:23:59.080Z,4.50
2018-10-06T14:26:26.871Z,3.92
2018-10-06T14:28:54.769Z,4.50
2018-10-06T14:31:22.884Z,4.60
2018-10-06T14:33:50.645Z,4.20
2018-10-06T14:36:18.464Z,4.45
2018-10-06T14:38:46.345Z,4.30
2018-10-06T14:41:14.170Z,4.83
2018-10-06T14:43:42.116Z,4.95
2018-10-06T14:46:09.907Z,4.83
2018-10-06T14:48:37.708Z,5.00
2018-10-06T14:51:05.533Z,5.13
2018-10-06T14:53:33.324Z,4.53
2018-10-06T14:56:01.189Z,5.43
2018-10-06T14:58:28.944Z,5.03
2018-10-06T15:00:56.716Z,5.43
2018-10-06T15:03:24.515Z,4.90
2018-10-06T15:05:52.341Z,5.20
2018-10-06T15:08:20.169Z,5.27
2018-10-06T15:10:47.993Z,4.60
2018-10-06T15:13:15.861Z,5.10
2018-10-06T15:15:43.738Z,4.70
2018-10-06T15:18:11.497Z,4.80
2018-10-06T15:20:39.343Z,5.40
2018-10-06T15:23:07.133Z,5.43
2018-10-06T15:25:34.926Z,6.47
2018-10-06T15:28:02.763Z,10.50
2018-10-06T15:30:30.561Z,9.07
2018-10-06T15:32:58.384Z,9.80
2018-10-06T15:35:26.165Z,8.03
2018-10-06T15:37:54.015Z,7.93
2018-10-06T15:40:21.764Z,6.63
2018-10-06T15:42:49.780Z,6.20
2018-10-06T15:45:17.632Z,6.37
2018-10-06T15:47:45.485Z,6.23
2018-10-06T15:50:13.261Z,7.67
2018-10-06T15:52:41.030Z,8.53
2018-10-06T15:55:08.865Z,8.80
2018-10-06T15:57:36.641Z,8.77
2018-10-06T16:00:04.441Z,9.10
2018-10-06T16:02:32.242Z,8.37
2018-10-06T16:05:00.037Z,7.87
2018-10-06T16:07:27.895Z,8.27
2018-10-06T16:09:55.818Z,8.60
2018-10-06T16:12:25.155Z,8.23
2018-10-06T16:14:53.144Z,7.53
2018-10-06T16:17:21.003Z,8.73
2018-10-06T16:19:48.892Z,9.23
2018-10-06T16:22:16.732Z,8.13
2018-10-06T16:24:44.667Z,10.73
2018-10-06T16:27:12.608Z,11.13
2018-10-06T16:29:40.497Z,10.00
2018-10-06T16:32:08.318Z,13.70
2018-10-06T16:34:36.155Z,15.00
2018-10-06T16:37:03.977Z,12.00
2018-10-06T16:39:31.753Z,8.97
2018-10-06T16:41:59.506Z,9.67
2018-10-06T16:44:27.301Z,6.10
2018-10-06T16:46:55.053Z,5.90
2018-10-06T16:49:22.829Z,6.20
2018-10-06T16:51:50.609Z,5.97
2018-10-06T16:54:18.411Z,6.43
2018-10-06T16:56:46.401Z,6.73
2018-10-06T16:59:14.221Z,6.50
2018-10-06T17:01:42.053Z,6.90
2018-10-06T17:04:09.874Z,8.70
2018-10-06T17:06:37.697Z,8.83
2018-10-06T17:09:08.084Z,7.03
2018-10-06T17:11:36.273Z,6.03
2018-10-06T17:14:04.955Z,6.80
2018-10-06T17:16:32.825Z,7.57
2018-10-06T17:19:00.610Z,7.30
2018-10-06T17:21:28.400Z,6.67
2018-10-06T17:23:56.173Z,5.37
2018-10-06T17:26:23.937Z,5.27
2018-10-06T17:28:51.707Z,4.67
2018-10-06T17:31:19.705Z,4.77
2018-10-06T17:33:47.557Z,4.17
2018-10-06T17:36:15.404Z,4.30
2018-10-06T17:38:43.298Z,4.20
2018-10-06T17:41:11.083Z,4.27
2018-10-06T17:43:38.977Z,4.40
2018-10-06T17:46:06.868Z,5.00
2018-10-06T17:48:34.637Z,4.73
2018-10-06T17:51:03.738Z,4.80
2018-10-06T17:53:31.557Z,4.43
2018-10-06T17:55:59.681Z,4.67
2018-10-06T17:58:29.049Z,4.23
2018-10-06T18:00:57.653Z,5.10
2018-10-06T18:03:25.808Z,5.40
2018-10-06T18:05:53.811Z,5.07
2018-10-06T18:08:21.808Z,4.50
2018-10-06T18:10:50.112Z,4.93
2018-10-06T18:13:18.170Z,4.70
2018-10-06T18:15:46.135Z,4.47
2018-10-06T18:18:14.060Z,4.30
2018-10-06T18:20:42.068Z,4.53
2018-10-06T18:23:10.142Z,4.40
2018-10-06T18:25:38.046Z,5.37
2018-10-06T18:28:06.110Z,4.60
2018-10-06T18:30:34.032Z,5.07
2018-10-06T18:33:01.925Z,5.07
2018-10-06T18:35:29.933Z,4.90
2018-10-06T18:37:58.107Z,5.23
2018-10-06T18:40:26.073Z,4.90
2018-10-06T18:42:54.218Z,4.57
2018-10-06T18:45:22.438Z,5.17
2018-10-06T18:47:50.573Z,4.80
2018-10-06T18:50:18.715Z,5.10
2018-10-06T18:52:46.621Z,4.83
2018-10-06T18:55:14.677Z,4.50
2018-10-06T18:57:43.059Z,4.30
2018-10-06T19:00:10.901Z,5.00
2018-10-06T19:02:38.785Z,5.37
2018-10-06T19:05:06.698Z,5.67
2018-10-06T19:07:34.609Z,5.30
2018-10-06T19:10:02.536Z,5.87
2018-10-06T19:12:30.657Z,5.77
2018-10-06T19:14:58.444Z,5.30
2018-10-06T19:17:26.210Z,5.17
2018-10-06T19:19:54.097Z,5.27
2018-10-06T19:22:22.093Z,5.63
2018-10-06T19:24:49.901Z,4.87
2018-10-06T19:27:17.650Z,4.90
2018-10-06T19:29:45.453Z,5.00
2018-10-06T19:32:13.321Z,4.80
2018-10-06T19:34:41.170Z,4.97
2018-10-06T19:37:08.940Z,4.50
2018-10-06T19:39:36.905Z,4.53
2018-10-06T19:42:04.731Z,4.40
2018-10-06T19:44:32.702Z,4.43
2018-10-06T19:47:00.598Z,4.60
2018-10-06T19:49:28.425Z,4.40
2018-10-06T19:51:56.305Z,4.50
2018-10-06T19:54:24.158Z,4.07
2018-10-06T19:56:52.095Z,4.20
2018-10-06T19:59:20.047Z,4.10
2018-10-06T20:01:48.072Z,4.70
2018-10-06T20:04:16.319Z,4.60
2018-10-06T20:06:44.141Z,4.90
2018-10-06T20:09:12.019Z,4.70
2018-10-06T20:11:39.958Z,4.27
2018-10-06T20:14:08.118Z,4.37
2018-10-06T20:16:35.957Z,5.00
2018-10-06T20:19:03.840Z,4.03
2018-10-06T20:21:31.811Z,4.30
2018-10-06T20:23:59.665Z,4.33
2018-10-06T20:26:27.669Z,4.10
2018-10-06T20:28:55.598Z,4.07
2018-10-06T20:31:23.508Z,4.30
2018-10-06T20:33:51.785Z,3.60
2018-10-06T20:36:19.791Z,4.20
2018-10-06T20:38:47.616Z,3.83
2018-10-06T20:41:16.146Z,3.90
2018-10-06T20:43:44.136Z,3.97
2018-10-06T20:46:12.011Z,4.40
2018-10-06T20:48:40.029Z,4.70
2018-10-06T20:51:07.929Z,5.30
2018-10-06T20:53:35.818Z,5.00
2018-10-06T20:56:03.781Z,4.60
2018-10-06T20:58:31.954Z,4.80
2018-10-06T21:00:59.953Z,4.93
2018-10-06T21:03:27.778Z,4.60
2018-10-06T21:05:55.732Z,4.77
2018-10-06T21:08:23.737Z,5.23
2018-10-06T21:10:51.735Z,4.23
2018-10-06T21:13:19.788Z,4.70
2018-10-06T21:15:48.653Z,4.37
2018-10-06T21:18:16.543Z,4.40
2018-10-06T21:20:44.497Z,4.70
2018-10-06T21:23:12.429Z,4.83
2018-10-06T21:25:40.459Z,4.00
2018-10-06T21:28:08.322Z,4.53
2018-10-06T21:30:36.421Z,4.20
2018-10-06T21:33:04.542Z,4.00
2018-10-06T21:35:32.352Z,4.23
2018-10-06T21:38:00.309Z,4.63
2018-10-06T21:40:28.176Z,3.57
2018-10-06T21:42:56.547Z,4.40
2018-10-06T21:45:24.533Z,4.40
2018-10-06T21:47:52.637Z,4.20
2018-10-06T21:50:20.680Z,4.17
2018-10-06T21:52:48.808Z,3.80
2018-10-06T21:55:16.577Z,4.40
2018-10-06T21:57:44.401Z,4.27
2018-10-06T22:00:12.580Z,3.53
2018-10-06T22:02:40.656Z,4.27
2018-10-06T22:05:12.048Z,4.17
2018-10-06T22:07:40.101Z,3.93
2018-10-06T22:10:07.924Z,3.93
2018-10-06T22:12:35.877Z,4.10
2018-10-06T22:15:03.820Z,4.03
2018-10-06T22:17:31.528Z,3.97
2018-10-06T22:19:59.389Z,4.20
2018-10-06T22:22:27.209Z,3.87
2018-10-06T22:24:55.082Z,3.80
2018-10-06T22:27:23.053Z,3.97
2018-10-06T22:29:51.156Z,4.10
2018-10-06T22:32:18.990Z,4.27
2018-10-06T22:34:46.847Z,3.87
2018-10-06T22:37:14.663Z,4.10
2018-10-06T22:39:42.430Z,3.60
2018-10-06T22:42:10.305Z,3.87
2018-10-06T22:44:38.128Z,4.53
2018-10-06T22:47:06.025Z,4.70
2018-10-06T22:49:34.262Z,4.47
2018-10-06T22:52:02.069Z,4.03
2018-10-06T22:54:29.940Z,4.47
2018-10-06T22:56:58.804Z,4.70
2018-10-06T22:59:26.594Z,4.13
2018-10-06T23:01:54.625Z,3.83
2018-10-06T23:04:22.425Z,4.10
2018-10-06T23:06:50.305Z,3.40
2018-10-06T23:09:18.090Z,3.60
2018-10-06T23:11:45.921Z,3.70
2018-10-06T23:14:13.739Z,3.90
2018-10-06T23:16:41.521Z,3.50
2018-10-06T23:19:09.332Z,3.67
2018-10-06T23:21:37.145Z,3.80
2018-10-06T23:24:05.006Z,3.37
2018-10-06T23:26:32.857Z,3.40
2018-10-06T23:29:00.630Z,3.27
2018-10-06T23:31:28.792Z,3.57
2018-10-06T23:33:56.590Z,3.30
2018-10-06T23:36:24.453Z,3.23
2018-10-06T23:38:52.374Z,3.30
2018-10-06T23:41:20.333Z,3.87
2018-10-06T23:43:48.124Z,3.20
2018-10-06T23:46:16.369Z,3.60
2018-10-06T23:48:44.217Z,3.60
2018-10-06T23:51:12.025Z,3.30
2018-10-06T23:53:39.901Z,3.57
2018-10-06T23:56:07.694Z,3.30
2018-10-06T23:58:35.501Z,3.37
